createdAt,value
2022-07-29T00:01:44.533Z,19.20
2022-07-29T00:04:14.459Z,19.12
2022-07-29T00:06:44.049Z,19.09
2022-07-29T00:09:13.343Z,19.01
2022-07-29T00:11:43.083Z,19.05
2022-07-29T00:14:12.489Z,18.97
2022-07-29T00:16:41.904Z,18.89
2022-07-29T00:19:11.210Z,18.89
2022-07-29T00:21:41.918Z,18.83
2022-07-29T00:24:11.147Z,18.84
2022-07-29T00:26:40.366Z,18.78
2022-07-29T00:31:59.131Z,18.79
2022-07-29T00:34:46.816Z,18.80
2022-07-29T00:37:16.225Z,18.72
2022-07-29T00:39:45.476Z,18.77
2022-07-29T00:42:14.717Z,18.81
2022-07-29T00:44:44.169Z,18.91
2022-07-29T00:47:13.968Z,18.93
2022-07-29T00:49:43.297Z,18.75
2022-07-29T00:52:13.187Z,19.02
2022-07-29T00:54:46.338Z,19.05
2022-07-29T00:57:15.574Z,19.12
2022-07-29T00:59:44.782Z,18.96
2022-07-29T01:02:14.075Z,19.00
2022-07-29T01:04:43.538Z,18.97
2022-07-29T01:07:13.107Z,19.00
2022-07-29T01:09:46.911Z,19.05
2022-07-29T01:12:25.295Z,18.96
2022-07-29T01:14:56.663Z,19.12
2022-07-29T01:17:32.832Z,19.20
2022-07-29T01:20:12.815Z,19.20
2022-07-29T01:22:59.992Z,19.22
2022-07-29T01:26:00.253Z,19.25
2022-07-29T01:29:07.660Z,19.21
2022-07-29T01:31:59.225Z,19.16
2022-07-29T01:34:40.541Z,19.11
2022-07-29T01:37:19.926Z,19.15
2022-07-29T01:39:52.556Z,19.13
2022-07-29T01:42:35.154Z,19.08
2022-07-29T01:45:13.304Z,19.04
2022-07-29T01:48:03.096Z,18.95
2022-07-29T01:50:38.687Z,18.90
2022-07-29T01:53:11.616Z,18.81
2022-07-29T01:55:45.384Z,18.75
2022-07-29T01:58:18.582Z,18.65
2022-07-29T02:00:50.392Z,18.69
2022-07-29T02:03:19.982Z,18.63
2022-07-29T02:05:50.599Z,18.55
2022-07-29T02:08:21.117Z,18.57
2022-07-29T02:10:52.037Z,18.62
2022-07-29T02:13:24.682Z,18.56
2022-07-29T02:15:55.348Z,18.61
2022-07-29T02:18:28.734Z,18.60
2022-07-29T02:21:00.294Z,18.66
2022-07-29T02:23:33.186Z,18.64
2022-07-29T02:26:24.999Z,18.57
2022-07-29T02:28:56.892Z,18.55
2022-07-29T02:31:32.042Z,18.52
2022-07-29T02:34:06.029Z,18.52
2022-07-29T02:36:35.727Z,18.47
2022-07-29T02:39:06.219Z,18.43
2022-07-29T02:41:45.720Z,18.33
2022-07-29T02:44:24.953Z,18.32
2022-07-29T02:47:26.097Z,18.30
2022-07-29T02:50:03.713Z,18.34
2022-07-29T02:52:35.362Z,18.25
2022-07-29T02:55:13.413Z,18.30
2022-07-29T02:57:54.448Z,18.27
2022-07-29T03:00:38.363Z,18.25
2022-07-29T03:03:16.027Z,18.19
2022-07-29T03:05:45.479Z,18.12
2022-07-29T03:08:16.083Z,18.10
2022-07-29T03:10:46.705Z,18.02
2022-07-29T03:13:16.807Z,17.96
2022-07-29T03:15:47.115Z,18.00
2022-07-29T03:18:16.587Z,17.95
2022-07-29T03:20:45.964Z,17.94
2022-07-29T03:23:20.966Z,17.92
2022-07-29T03:25:54.397Z,17.82
2022-07-29T03:28:24.777Z,17.82
2022-07-29T03:30:56.428Z,17.86
2022-07-29T03:33:25.882Z,17.78
2022-07-29T03:35:55.083Z,17.78
2022-07-29T03:38:27.870Z,17.84
2022-07-29T03:41:08.479Z,17.82
2022-07-29T03:43:49.294Z,17.82
2022-07-29T03:46:22.166Z,17.76
2022-07-29T03:48:57.529Z,17.82
2022-07-29T03:51:33.229Z,17.80
2022-07-29T03:54:14.363Z,17.82
2022-07-29T03:56:48.523Z,17.79
2022-07-29T03:59:20.529Z,17.82
2022-07-29T04:01:51.234Z,17.89
2022-07-29T04:04:20.810Z,17.89
2022-07-29T04:06:50.021Z,17.92
2022-07-29T04:09:19.254Z,17.92
2022-07-29T04:11:57.106Z,17.92
2022-07-29T04:14:34.059Z,17.92
2022-07-29T04:17:05.198Z,18.02
2022-07-29T04:19:34.783Z,18.01
2022-07-29T04:22:04.103Z,18.10
2022-07-29T04:24:33.352Z,18.09
2022-07-29T04:27:02.623Z,18.21
2022-07-29T04:29:31.839Z,18.33
2022-07-29T04:32:01.137Z,18.39
2022-07-29T04:34:30.534Z,18.41
2022-07-29T04:36:59.733Z,18.51
2022-07-29T04:39:30.404Z,18.60
2022-07-29T04:41:59.875Z,18.66
2022-07-29T04:44:30.706Z,18.71
2022-07-29T04:47:09.747Z,18.83
2022-07-29T04:49:39.807Z,18.95
2022-07-29T04:52:08.990Z,19.12
2022-07-29T04:54:38.373Z,19.23
2022-07-29T04:57:07.525Z,19.29
2022-07-29T04:59:36.851Z,19.44
2022-07-29T05:02:06.206Z,19.59
2022-07-29T05:04:35.527Z,19.72
2022-07-29T05:07:04.763Z,19.82
2022-07-29T05:09:33.947Z,19.89
2022-07-29T05:12:03.280Z,20.03
2022-07-29T05:14:32.697Z,20.09
2022-07-29T05:17:01.997Z,20.26
2022-07-29T05:19:31.241Z,20.37
2022-07-29T05:22:01.096Z,20.49
2022-07-29T05:24:30.499Z,20.57
2022-07-29T05:26:59.706Z,20.65
2022-07-29T05:29:43.841Z,20.79
2022-07-29T05:32:14.839Z,20.97
2022-07-29T05:34:50.797Z,21.07
2022-07-29T05:37:21.250Z,21.16
2022-07-29T05:39:56.655Z,21.26
2022-07-29T05:42:27.172Z,21.35
2022-07-29T05:44:56.500Z,21.50
2022-07-29T05:47:25.744Z,21.52
2022-07-29T05:49:55.171Z,21.61
2022-07-29T05:52:35.450Z,21.78
2022-07-29T05:55:06.682Z,21.88
2022-07-29T05:57:35.921Z,21.95
2022-07-29T06:00:05.962Z,22.05
2022-07-29T06:02:41.846Z,22.19
2022-07-29T06:05:16.265Z,22.26
2022-07-29T06:07:50.669Z,22.39
2022-07-29T06:10:20.883Z,22.49
2022-07-29T06:12:53.602Z,22.65
2022-07-29T06:15:22.806Z,22.77
2022-07-29T06:18:00.524Z,22.89
2022-07-29T06:20:32.297Z,22.99
2022-07-29T06:23:02.424Z,23.07
2022-07-29T06:25:31.853Z,23.13
2022-07-29T06:28:01.347Z,23.27
2022-07-29T06:30:30.870Z,23.38
2022-07-29T06:33:01.397Z,23.48
2022-07-29T06:35:39.066Z,23.60
2022-07-29T06:38:30.768Z,23.72
2022-07-29T06:41:06.814Z,23.84
2022-07-29T06:43:51.931Z,23.91
2022-07-29T06:46:23.482Z,24.02
2022-07-29T06:48:53.663Z,24.14
2022-07-29T06:51:23.857Z,24.24
2022-07-29T06:54:00.373Z,24.38
2022-07-29T06:56:38.311Z,24.50
2022-07-29T06:59:11.486Z,24.58
2022-07-29T07:01:42.858Z,24.64
2022-07-29T07:04:13.161Z,24.73
2022-07-29T07:06:42.604Z,24.82
2022-07-29T07:09:11.796Z,24.93
2022-07-29T07:11:41.084Z,25.00
2022-07-29T07:14:10.397Z,25.07
2022-07-29T07:16:39.666Z,25.23
2022-07-29T07:19:08.982Z,25.27
2022-07-29T07:21:38.288Z,25.45
2022-07-29T07:24:07.693Z,25.54
2022-07-29T07:26:36.933Z,25.63
2022-07-29T07:29:06.284Z,25.65
2022-07-29T07:31:35.560Z,25.78
2022-07-29T07:34:05.143Z,25.87
2022-07-29T07:36:34.378Z,25.93
2022-07-29T07:39:04.594Z,26.06
2022-07-29T07:41:33.892Z,26.15
2022-07-29T07:44:03.289Z,26.27
2022-07-29T07:46:32.822Z,26.37
2022-07-29T07:49:02.071Z,26.40
2022-07-29T07:51:31.338Z,26.60
2022-07-29T07:54:01.844Z,26.66
2022-07-29T07:56:35.344Z,26.72
2022-07-29T07:59:04.898Z,26.77
2022-07-29T08:01:55.151Z,26.91
2022-07-29T08:04:27.929Z,26.94
2022-07-29T08:06:58.845Z,27.07
2022-07-29T08:09:30.546Z,27.20
2022-07-29T08:12:00.388Z,27.30
2022-07-29T08:14:30.945Z,27.47
2022-07-29T08:17:00.462Z,27.59
2022-07-29T08:19:29.839Z,27.71
2022-07-29T08:21:59.134Z,27.80
2022-07-29T08:24:46.799Z,27.96
2022-07-29T08:27:42.063Z,28.03
2022-07-29T08:30:05.823Z,28.17
2022-07-29T08:32:53.106Z,28.18
2022-07-29T08:35:24.489Z,28.23
2022-07-29T08:37:54.345Z,28.34
2022-07-29T08:40:31.828Z,28.38
2022-07-29T08:43:09.554Z,28.48
2022-07-29T08:45:48.113Z,28.54
2022-07-29T08:48:20.254Z,28.57
2022-07-29T08:50:53.578Z,28.63
2022-07-29T08:53:25.738Z,28.72
2022-07-29T08:55:56.101Z,28.75
2022-07-29T08:58:26.575Z,28.78
2022-07-29T09:00:57.916Z,28.83
2022-07-29T09:03:32.592Z,28.89
2022-07-29T09:06:03.142Z,28.93
2022-07-29T09:08:33.563Z,29.03
2022-07-29T09:11:05.342Z,29.14
2022-07-29T09:13:35.576Z,29.22
2022-07-29T09:16:09.551Z,29.34
2022-07-29T09:18:44.404Z,29.34
2022-07-29T09:21:34.025Z,29.40
2022-07-29T09:24:07.929Z,29.47
2022-07-29T09:26:43.429Z,29.45
2022-07-29T09:29:20.926Z,29.47
2022-07-29T09:31:53.245Z,29.58
2022-07-29T09:34:27.979Z,29.62
2022-07-29T09:36:57.798Z,29.75
2022-07-29T09:39:46.689Z,29.86
2022-07-29T09:42:28.936Z,30.07
2022-07-29T09:44:58.235Z,30.17
2022-07-29T09:47:43.156Z,30.38
2022-07-29T09:50:12.553Z,30.56
2022-07-29T09:52:50.016Z,30.71
2022-07-29T09:55:20.241Z,30.98
2022-07-29T09:57:49.517Z,31.27
2022-07-29T10:00:20.836Z,31.52
2022-07-29T10:02:50.575Z,31.80
2022-07-29T10:05:21.411Z,32.11
2022-07-29T10:07:57.479Z,32.26
2022-07-29T10:10:27.079Z,32.42
2022-07-29T10:13:01.841Z,32.74
2022-07-29T10:15:41.845Z,32.91
2022-07-29T10:18:15.571Z,33.31
2022-07-29T10:20:44.899Z,33.44
2022-07-29T10:23:15.019Z,33.43
2022-07-29T10:25:46.983Z,33.44
2022-07-29T10:28:16.920Z,33.29
2022-07-29T10:30:47.931Z,33.25
2022-07-29T10:33:47.660Z,33.23
2022-07-29T10:36:45.028Z,33.21
2022-07-29T10:39:49.857Z,33.09
2022-07-29T10:45:18.690Z,32.77
2022-07-29T10:47:47.993Z,32.64
2022-07-29T10:50:17.522Z,32.40
2022-07-29T10:52:57.650Z,32.07
2022-07-29T10:55:43.145Z,31.89
2022-07-29T10:58:14.663Z,31.70
2022-07-29T11:00:45.615Z,31.62
2022-07-29T11:03:50.410Z,31.55
2022-07-29T11:06:26.758Z,31.41
2022-07-29T11:09:20.104Z,31.32
2022-07-29T11:11:58.167Z,31.17
2022-07-29T11:15:00.042Z,31.03
2022-07-29T11:17:47.154Z,30.83
2022-07-29T11:20:49.808Z,30.58
2022-07-29T11:23:36.713Z,30.24
2022-07-29T11:26:22.950Z,29.83
2022-07-29T11:29:17.727Z,29.04
2022-07-29T11:31:50.906Z,26.99
2022-07-29T11:34:34.807Z,24.69
2022-07-29T11:37:10.331Z,23.46
2022-07-29T11:40:08.442Z,22.81
2022-07-29T11:42:44.572Z,22.56
2022-07-29T11:45:42.734Z,22.32
2022-07-29T11:48:29.542Z,22.04
2022-07-29T11:50:58.423Z,21.86
2022-07-29T11:53:28.976Z,21.76
2022-07-29T11:56:02.780Z,21.45
2022-07-29T11:58:32.940Z,21.55
2022-07-29T12:04:03.968Z,21.72
2022-07-29T12:06:36.135Z,21.74
2022-07-29T12:07:03.869Z,21.63
2022-07-29T12:09:14.370Z,21.65
2022-07-29T12:11:47.367Z,21.70
2022-07-29T12:14:48.750Z,21.72
2022-07-29T12:17:30.856Z,21.75
2022-07-29T12:20:05.095Z,21.48
2022-07-29T12:22:38.314Z,20.91
2022-07-29T12:25:32.859Z,20.67
2022-07-29T12:28:02.015Z,20.52
2022-07-29T12:30:52.016Z,20.56
2022-07-29T12:33:27.403Z,20.73
2022-07-29T12:36:14.180Z,20.76
2022-07-29T12:38:47.325Z,20.91
2022-07-29T12:41:16.636Z,21.12
2022-07-29T12:43:55.756Z,21.31
2022-07-29T12:46:25.048Z,21.44
2022-07-29T12:48:59.690Z,21.76
2022-07-29T12:51:40.592Z,22.04
2022-07-29T12:54:18.845Z,22.56
2022-07-29T12:57:01.250Z,23.71
2022-07-29T12:59:30.583Z,24.57
2022-07-29T13:02:01.107Z,27.63
2022-07-29T13:04:36.628Z,30.85
2022-07-29T13:07:09.223Z,33.66
2022-07-29T13:09:44.539Z,35.16
2022-07-29T13:12:15.471Z,35.44
2022-07-29T13:14:47.735Z,35.77
2022-07-29T13:17:18.469Z,35.41
2022-07-29T13:19:48.845Z,37.56
2022-07-29T13:22:20.428Z,38.61
2022-07-29T13:25:02.558Z,37.55
2022-07-29T13:27:39.577Z,35.24
2022-07-29T13:30:10.415Z,33.59
2022-07-29T13:32:39.850Z,32.69
2022-07-29T13:35:09.758Z,32.09
2022-07-29T13:37:41.600Z,32.19
2022-07-29T13:40:11.658Z,34.09
2022-07-29T13:42:41.973Z,34.67
2022-07-29T13:45:11.952Z,34.37
2022-07-29T13:47:45.980Z,33.98
2022-07-29T13:50:18.589Z,35.35
2022-07-29T13:52:49.464Z,38.99
2022-07-29T13:55:19.004Z,40.60
2022-07-29T13:57:48.689Z,39.18
2022-07-29T14:00:18.243Z,37.28
2022-07-29T14:02:47.571Z,35.97
2022-07-29T14:05:16.854Z,35.48
2022-07-29T14:07:46.053Z,34.61
2022-07-29T14:10:19.948Z,33.74
2022-07-29T14:12:49.424Z,33.06
2022-07-29T14:15:18.725Z,32.74
2022-07-29T14:17:48.046Z,33.81
2022-07-29T14:20:17.380Z,35.85
2022-07-29T14:22:46.586Z,35.52
2022-07-29T14:25:16.172Z,35.09
2022-07-29T14:27:45.764Z,34.55
2022-07-29T14:30:15.644Z,36.64
2022-07-29T14:32:44.868Z,36.32
2022-07-29T14:35:14.140Z,35.29
2022-07-29T14:37:43.457Z,34.85
2022-07-29T14:40:12.776Z,37.64
2022-07-29T14:42:42.308Z,40.00
2022-07-29T14:45:11.692Z,39.53
2022-07-29T14:47:41.068Z,38.23
2022-07-29T14:50:11.543Z,36.87
2022-07-29T14:52:41.494Z,35.95
2022-07-29T14:55:19.594Z,35.50
2022-07-29T14:57:50.992Z,35.10
2022-07-29T15:00:21.774Z,34.51
2022-07-29T15:03:04.706Z,33.97
2022-07-29T15:05:34.131Z,33.36
2022-07-29T15:08:03.912Z,32.75
2022-07-29T15:10:33.919Z,32.18
2022-07-29T15:13:03.260Z,31.67
2022-07-29T15:15:32.476Z,31.12
2022-07-29T15:18:01.648Z,30.58
2022-07-29T15:20:31.025Z,30.14
2022-07-29T15:23:00.250Z,29.75
2022-07-29T15:25:29.588Z,29.34
2022-07-29T15:28:01.705Z,28.95
2022-07-29T15:30:34.062Z,28.61
2022-07-29T15:33:04.452Z,28.43
2022-07-29T15:35:40.130Z,28.17
2022-07-29T15:38:09.964Z,27.87
2022-07-29T15:40:42.238Z,27.75
2022-07-29T15:43:11.487Z,27.77
2022-07-29T15:46:03.696Z,27.86
2022-07-29T15:48:33.033Z,28.33
2022-07-29T15:51:02.292Z,28.37
2022-07-29T15:53:31.519Z,28.81
2022-07-29T15:56:02.335Z,31.22
2022-07-29T15:58:31.487Z,32.10
2022-07-29T16:01:00.723Z,33.71
2022-07-29T16:03:29.997Z,33.06
2022-07-29T16:05:59.444Z,31.79
2022-07-29T16:08:28.604Z,30.96
2022-07-29T16:10:57.839Z,30.37
2022-07-29T16:13:26.986Z,29.85
2022-07-29T16:16:02.120Z,29.46
2022-07-29T16:18:32.642Z,29.08
2022-07-29T16:21:01.915Z,28.73
2022-07-29T16:23:31.149Z,28.33
2022-07-29T16:26:01.385Z,28.08
2022-07-29T16:28:30.965Z,27.93
2022-07-29T16:31:00.199Z,27.74
2022-07-29T16:33:53.562Z,27.59
2022-07-29T16:36:19.721Z,27.29
2022-07-29T16:38:49.041Z,27.09
2022-07-29T16:41:18.280Z,26.95
2022-07-29T16:43:47.667Z,26.85
2022-07-29T16:46:19.146Z,26.74
2022-07-29T16:48:49.748Z,26.70
2022-07-29T16:51:19.048Z,26.60
2022-07-29T16:53:50.287Z,26.47
2022-07-29T16:56:19.719Z,26.38
2022-07-29T16:58:48.955Z,26.24
2022-07-29T17:01:18.321Z,26.13
2022-07-29T17:04:06.036Z,25.95
2022-07-29T17:06:40.543Z,25.80
2022-07-29T17:09:11.437Z,25.72
2022-07-29T17:11:53.654Z,25.61
2022-07-29T17:14:26.020Z,25.51
2022-07-29T17:17:01.388Z,25.44
2022-07-29T17:19:34.220Z,25.35
2022-07-29T17:22:18.937Z,25.28
2022-07-29T17:24:48.733Z,25.18
2022-07-29T17:27:18.559Z,25.07
2022-07-29T17:29:47.959Z,24.93
2022-07-29T17:32:17.454Z,24.92
2022-07-29T17:34:46.619Z,24.85
2022-07-29T17:37:15.831Z,24.86
2022-07-29T17:39:45.067Z,24.76
2022-07-29T17:42:14.706Z,24.77
2022-07-29T17:44:43.893Z,24.77
2022-07-29T17:47:15.966Z,24.78
2022-07-29T17:49:45.996Z,24.79
2022-07-29T17:52:16.047Z,24.71
2022-07-29T17:54:45.273Z,24.72
2022-07-29T17:57:14.466Z,24.63
2022-07-29T17:59:43.830Z,24.62
2022-07-29T18:02:14.476Z,24.50
2022-07-29T18:04:44.062Z,24.46
2022-07-29T18:07:13.514Z,24.38
2022-07-29T18:09:42.714Z,24.26
2022-07-29T18:12:11.938Z,24.18
2022-07-29T18:14:41.160Z,24.19
2022-07-29T18:17:10.535Z,24.17
2022-07-29T18:19:39.764Z,24.14
2022-07-29T18:22:10.233Z,24.11
2022-07-29T18:24:39.427Z,24.05
2022-07-29T18:27:08.632Z,24.05
2022-07-29T18:29:37.908Z,23.97
2022-07-29T18:32:07.524Z,24.05
2022-07-29T18:34:36.696Z,23.97
2022-07-29T18:37:05.924Z,24.02
2022-07-29T18:39:35.122Z,23.91
2022-07-29T18:42:04.613Z,23.85
2022-07-29T18:44:34.421Z,23.71
2022-07-29T18:47:12.951Z,23.55
2022-07-29T18:49:42.397Z,23.56
2022-07-29T18:52:12.523Z,23.44
2022-07-29T18:54:42.109Z,23.33
2022-07-29T18:57:54.703Z,23.23
2022-07-29T19:00:00.627Z,23.14
2022-07-29T19:02:29.927Z,23.00
2022-07-29T19:04:59.175Z,22.89
2022-07-29T19:07:29.920Z,22.80
2022-07-29T19:09:59.258Z,22.72
2022-07-29T19:12:28.672Z,22.61
2022-07-29T19:14:57.912Z,22.51
2022-07-29T19:17:27.071Z,22.47
2022-07-29T19:19:56.323Z,22.52
2022-07-29T19:22:25.552Z,22.44
2022-07-29T19:24:54.760Z,22.34
2022-07-29T19:27:24.070Z,22.19
2022-07-29T19:29:55.814Z,22.13
2022-07-29T19:32:28.508Z,22.12
2022-07-29T19:35:15.866Z,22.15
2022-07-29T19:37:45.138Z,22.09
2022-07-29T19:40:16.229Z,22.03
2022-07-29T19:42:45.610Z,21.92
2022-07-29T19:45:14.881Z,21.91
2022-07-29T19:47:44.142Z,21.80
2022-07-29T19:50:15.679Z,21.88
2022-07-29T19:52:47.108Z,21.89
2022-07-29T19:55:16.520Z,21.88
2022-07-29T19:57:47.956Z,21.94
2022-07-29T20:00:17.652Z,21.94
2022-07-29T20:02:50.271Z,21.90
2022-07-29T20:05:19.470Z,21.96
2022-07-29T20:07:48.801Z,21.89
2022-07-29T20:10:17.981Z,21.91
2022-07-29T20:12:47.154Z,21.89
2022-07-29T20:15:20.498Z,21.79
2022-07-29T20:17:51.850Z,21.78
2022-07-29T20:20:25.390Z,21.75
2022-07-29T20:22:54.600Z,21.68
2022-07-29T20:25:24.234Z,21.71
2022-07-29T20:27:54.376Z,21.68
2022-07-29T20:30:23.910Z,21.69
2022-07-29T20:32:53.119Z,21.69
2022-07-29T20:35:23.948Z,21.69
2022-07-29T20:37:56.445Z,21.66
2022-07-29T20:40:27.078Z,21.58
2022-07-29T20:42:56.451Z,21.54
2022-07-29T20:45:25.886Z,21.58
2022-07-29T20:47:55.182Z,21.49
2022-07-29T20:50:24.844Z,21.47
2022-07-29T20:52:54.042Z,21.41
2022-07-29T20:55:23.420Z,21.27
2022-07-29T20:57:52.639Z,21.24
2022-07-29T21:00:21.996Z,21.12
2022-07-29T21:02:51.724Z,21.09
2022-07-29T21:05:21.070Z,21.03
2022-07-29T21:07:51.274Z,20.97
2022-07-29T21:10:22.604Z,20.89
2022-07-29T21:12:51.835Z,20.80
2022-07-29T21:15:21.964Z,20.76
2022-07-29T21:17:59.467Z,20.65
2022-07-29T21:20:29.696Z,20.61
2022-07-29T21:22:59.009Z,20.56
2022-07-29T21:25:29.757Z,20.54
2022-07-29T21:28:17.365Z,20.54
2022-07-29T21:30:46.674Z,20.54
2022-07-29T21:33:15.898Z,20.44
2022-07-29T21:36:06.949Z,20.52
2022-07-29T21:38:35.443Z,20.51
2022-07-29T21:41:05.543Z,20.49
2022-07-29T21:43:34.822Z,20.43
2022-07-29T21:46:04.129Z,20.49
2022-07-29T21:48:33.434Z,20.45
2022-07-29T21:51:02.766Z,20.49
2022-07-29T21:53:32.121Z,20.50
2022-07-29T21:56:01.388Z,20.50
2022-07-29T21:58:30.557Z,20.42
2022-07-29T22:01:00.411Z,20.46
2022-07-29T22:03:29.744Z,20.53
2022-07-29T22:05:59.270Z,20.54
2022-07-29T22:08:28.590Z,20.57
2022-07-29T22:10:57.795Z,20.64
2022-07-29T22:13:27.039Z,20.74
2022-07-29T22:15:56.310Z,20.74
2022-07-29T22:18:25.570Z,20.74
2022-07-29T22:20:55.715Z,20.80
2022-07-29T22:23:25.129Z,20.78
2022-07-29T22:25:54.376Z,20.80
2022-07-29T22:28:23.575Z,20.74
2022-07-29T22:30:52.892Z,20.71
2022-07-29T22:33:22.226Z,20.60
2022-07-29T22:35:51.424Z,20.59
2022-07-29T22:38:20.708Z,20.60
2022-07-29T22:40:51.307Z,20.53
2022-07-29T22:43:20.609Z,20.52
2022-07-29T22:45:49.835Z,20.50
2022-07-29T22:48:19.190Z,20.58
2022-07-29T22:50:48.462Z,20.56
2022-07-29T22:53:17.713Z,20.51
2022-07-29T22:55:47.839Z,20.53
2022-07-29T22:58:17.067Z,20.42
2022-07-29T23:00:46.242Z,20.44
2022-07-29T23:03:15.493Z,20.42
2022-07-29T23:05:44.741Z,20.33
2022-07-29T23:08:13.907Z,20.26
2022-07-29T23:10:43.237Z,20.17
2022-07-29T23:13:12.578Z,20.11
2022-07-29T23:15:42.041Z,20.10
2022-07-29T23:18:11.285Z,20.08
2022-07-29T23:20:40.885Z,19.99
2022-07-29T23:23:10.429Z,20.02
2022-07-29T23:25:39.636Z,19.94
2022-07-29T23:28:13.062Z,19.96
2022-07-29T23:30:43.095Z,19.93
2022-07-29T23:33:12.409Z,19.92
2022-07-29T23:35:41.694Z,19.89
2022-07-29T23:38:10.903Z,19.91
2022-07-29T23:40:40.147Z,19.82
2022-07-29T23:43:09.357Z,19.88
2022-07-29T23:45:42.638Z,19.83
2022-07-29T23:48:14.697Z,19.85
2022-07-29T23:50:43.899Z,19.83
2022-07-29T23:53:13.086Z,19.82
2022-07-29T23:55:42.312Z,19.80
2022-07-29T23:58:11.500Z,19.82
